TimeCST,TemperatureF,Dew PointF,Humidity,Sea Level PressureIn,VisibilityMPH,Wind Direction,Wind SpeedMPH,Gust SpeedMPH,PrecipitationIn,Events,Conditions,WindDirDegrees,DateUTC
12:54 AM,50.0,43.0,77,30.17,10.0,North,5.8,-,N/A,,Scattered Clouds,350,2012-11-21 06:54:00
1:54 AM,45.0,41.0,86,30.18,9.0,North,3.5,-,N/A,,Clear,360,2012-11-21 07:54:00
2:54 AM,45.0,41.0,86,30.18,7.0,Calm,Calm,-,N/A,,Clear,0,2012-11-21 08:54:00
3:54 AM,39.0,37.0,93,30.20,6.0,Calm,Calm,-,N/A,,Clear,0,2012-11-21 09:54:00
4:54 AM,41.0,39.0,93,30.21,5.0,Calm,Calm,-,N/A,,Clear,0,2012-11-21 10:54:00
5:54 AM,41.0,39.0,93,30.23,4.0,Calm,Calm,-,N/A,,Clear,0,2012-11-21 11:54:00
6:41 AM,39.2,37.4,93,30.24,2.0,Calm,Calm,-,N/A,,Clear,0,2012-11-21 12:41:00
6:54 AM,39.0,37.0,93,30.25,2.0,Calm,Calm,-,N/A,,Clear,0,2012-11-21 12:54:00
7:54 AM,44.1,42.1,93,30.26,2.5,Calm,Calm,-,N/A,,Clear,0,2012-11-21 13:54:00
8:30 AM,51.8,46.4,82,30.26,3.0,NE,3.5,-,N/A,,Haze,40,2012-11-21 14:30:00
8:54 AM,53.1,46.0,77,30.26,4.0,NE,5.8,-,N/A,,Haze,50,2012-11-21 14:54:00
9:54 AM,57.0,45.0,64,30.27,5.0,NE,4.6,-,N/A,,Haze,50,2012-11-21 15:54:00
10:54 AM,60.1,45.0,57,30.26,7.0,North,9.2,-,N/A,,Clear,350,2012-11-21 16:54:00
11:54 AM,62.1,44.1,52,30.25,7.0,North,4.6,-,N/A,,Clear,360,2012-11-21 17:54:00
12:54 PM,63.0,45.0,52,30.23,7.0,NE,4.6,-,N/A,,Clear,40,2012-11-21 18:54:00
1:54 PM,63.0,45.0,52,30.22,6.0,NNE,4.6,-,N/A,,Haze,30,2012-11-21 19:54:00
2:54 PM,63.0,44.1,50,30.22,9.0,North,5.8,-,N/A,,Clear,350,2012-11-21 20:54:00
3:54 PM,60.1,44.1,55,30.22,8.0,Calm,Calm,-,N/A,,Clear,0,2012-11-21 21:54:00
4:54 PM,55.0,43.0,64,30.22,9.0,Calm,Calm,-,N/A,,Clear,0,2012-11-21 22:54:00
5:54 PM,51.1,43.0,74,30.22,8.0,Calm,Calm,-,N/A,,Clear,0,2012-11-21 23:54:00
6:54 PM,48.0,42.1,80,30.22,7.0,Calm,Calm,-,N/A,,Clear,0,2012-11-22 00:54:00
7:54 PM,46.0,41.0,83,30.22,6.0,Calm,Calm,-,N/A,,Haze,0,2012-11-22 01:54:00
8:54 PM,43.0,39.9,89,30.22,7.0,Calm,Calm,-,N/A,,Clear,0,2012-11-22 02:54:00
8:56 PM,42.8,39.2,87,30.22,1.2,Calm,Calm,-,N/A,,Clear,0,2012-11-22 02:56:00
9:11 PM,42.8,39.2,87,30.21,3.0,Calm,Calm,-,N/A,,Clear,0,2012-11-22 03:11:00
9:54 PM,42.1,39.9,92,30.22,3.0,Calm,Calm,-,N/A,,Clear,0,2012-11-22 03:54:00
10:54 PM,42.1,39.9,92,30.22,4.0,Calm,Calm,-,N/A,,Clear,0,2012-11-22 04:54:00
11:54 PM,39.9,37.9,93,30.22,3.0,Calm,Calm,-,N/A,,Clear,0,2012-11-22 05:54:00